Dunn, Louisiana
Current Conditions -  °F | °C
As of 10:15 AM on Tuesday 21 Oct 2014 (Local Time) from KBQP Reporting Station
Overcast Overcast  
Wind Chill: 65°   Ceiling: 4700
Heat Index: 65°   Visibility: 10mi
Dew Point: 60°   Wind: 0mph
Humidity: 82%   Direction: NA
Pressure: 30.13"   Gusts: NA
Location:  32.4445°N, 91.5289°W
Report Text: KBQP 211515Z AUTO 00000KT 10SM OVC047 19/15 A3013 RMK AO2 T01860154
Loading
Personal Weather Stations






























Interactive Weather Map
Tropical Storm Tracking
New forecast layout! Learn more

10-Day Weather Forecast

Advertisements
Track Severe Weather on mobile